createdAt,value
2023-01-25T00:00:52.575Z,53.78
2023-01-25T00:03:20.359Z,55.55
2023-01-25T00:05:48.103Z,56.47
2023-01-25T00:08:17.502Z,52.72
2023-01-25T00:10:45.285Z,57.22
2023-01-25T00:13:12.998Z,48.88
2023-01-25T00:15:40.690Z,54.58
2023-01-25T00:18:08.390Z,53.08
2023-01-25T00:20:36.059Z,50.58
2023-01-25T00:23:03.758Z,52.20
2023-01-25T00:25:32.818Z,52.58
2023-01-25T00:28:00.560Z,52.55
2023-01-25T00:30:28.327Z,51.35
2023-01-25T00:33:03.472Z,49.65
2023-01-25T00:35:32.700Z,48.28
2023-01-25T00:38:03.123Z,47.50
2023-01-25T00:40:32.200Z,48.17
2023-01-25T00:43:01.700Z,50.92
2023-01-25T00:45:29.413Z,48.45
2023-01-25T00:47:57.585Z,57.85
2023-01-25T00:50:25.339Z,52.83
2023-01-25T00:52:53.056Z,52.88
2023-01-25T00:55:20.779Z,50.40
2023-01-25T00:57:49.874Z,49.15
2023-01-25T01:00:18.380Z,51.35
2023-01-25T01:02:46.102Z,47.78
2023-01-25T01:05:13.875Z,51.17
2023-01-25T01:07:41.641Z,51.90
2023-01-25T01:10:09.921Z,55.20
2023-01-25T01:12:37.608Z,55.22
2023-01-25T01:15:08.163Z,53.08
2023-01-25T01:17:36.022Z,51.85
2023-01-25T01:20:03.813Z,51.17
2023-01-25T01:22:31.502Z,51.67
2023-01-25T01:24:59.209Z,51.45
2023-01-25T01:27:26.929Z,45.03
2023-01-25T01:29:54.611Z,52.35
2023-01-25T01:32:23.959Z,53.55
2023-01-25T01:34:51.670Z,50.97
2023-01-25T01:37:19.346Z,48.55
2023-01-25T01:39:47.026Z,51.75
2023-01-25T01:42:14.720Z,51.65
2023-01-25T01:44:47.607Z,53.22
2023-01-25T01:47:20.970Z,50.30
2023-01-25T01:49:54.053Z,50.17
2023-01-25T01:52:25.845Z,50.05
2023-01-25T01:54:57.507Z,55.47
2023-01-25T01:57:28.702Z,51.28
2023-01-25T02:00:00.629Z,48.08
2023-01-25T02:02:28.506Z,50.78
2023-01-25T02:05:02.100Z,54.25
2023-01-25T02:07:35.155Z,50.70
2023-01-25T02:10:04.739Z,59.42
2023-01-25T02:12:33.164Z,53.50
2023-01-25T02:15:00.902Z,55.92
2023-01-25T02:17:30.312Z,59.65
2023-01-25T02:20:04.104Z,57.30
2023-01-25T02:22:40.697Z,53.40
2023-01-25T02:25:11.249Z,64.50
2023-01-25T02:27:41.864Z,56.28
2023-01-25T02:30:11.121Z,61.10
2023-01-25T02:32:38.886Z,57.55
2023-01-25T02:35:07.776Z,56.92
2023-01-25T02:37:36.171Z,58.60
2023-01-25T02:40:05.758Z,63.47
2023-01-25T02:42:35.594Z,57.97
2023-01-25T02:45:03.736Z,62.28
2023-01-25T02:47:31.423Z,57.00
2023-01-25T02:49:59.129Z,65.97
2023-01-25T02:52:26.848Z,58.83
2023-01-25T02:54:54.554Z,59.67
2023-01-25T02:57:23.266Z,58.67
2023-01-25T02:59:52.361Z,55.17
2023-01-25T03:02:20.082Z,57.72
2023-01-25T03:04:47.851Z,54.38
2023-01-25T03:07:15.550Z,57.22
2023-01-25T03:09:43.244Z,54.95
2023-01-25T03:12:11.010Z,58.42
2023-01-25T03:14:38.719Z,57.20
2023-01-25T03:17:07.860Z,63.17
2023-01-25T03:19:35.634Z,62.30
2023-01-25T03:22:03.632Z,61.25
2023-01-25T03:24:31.438Z,58.88
2023-01-25T03:27:14.496Z,58.40
2023-01-25T03:29:42.486Z,60.33
2023-01-25T03:32:11.870Z,60.85
2023-01-25T03:34:40.356Z,59.53
2023-01-25T03:37:08.107Z,59.90
2023-01-25T03:39:35.840Z,58.80
2023-01-25T03:42:03.568Z,61.50
2023-01-25T03:44:31.297Z,59.17
2023-01-25T03:46:59.164Z,62.40
2023-01-25T03:49:28.640Z,63.50
2023-01-25T03:51:58.013Z,62.50
2023-01-25T03:54:25.858Z,61.15
2023-01-25T03:56:53.553Z,60.28
2023-01-25T03:59:23.598Z,58.00
2023-01-25T04:01:51.413Z,59.83
2023-01-25T04:04:19.190Z,59.33
2023-01-25T04:06:48.314Z,59.35
2023-01-25T04:09:16.094Z,61.63
2023-01-25T04:11:43.802Z,55.10
2023-01-25T04:14:11.753Z,53.58
2023-01-25T04:16:39.498Z,56.10
2023-01-25T04:19:07.375Z,56.15
2023-01-25T04:21:35.098Z,56.67
2023-01-25T04:24:04.396Z,62.97
2023-01-25T04:26:32.358Z,57.08
2023-01-25T04:29:00.080Z,56.92
2023-01-25T04:31:27.928Z,56.30
2023-01-25T04:33:56.706Z,53.25
2023-01-25T04:36:24.399Z,58.70
2023-01-25T04:38:52.119Z,54.78
2023-01-25T04:41:21.180Z,55.65
2023-01-25T04:43:48.894Z,54.95
2023-01-25T04:46:16.748Z,57.90
2023-01-25T04:48:44.500Z,55.47
2023-01-25T04:51:13.495Z,55.92
2023-01-25T04:53:41.217Z,58.72
2023-01-25T04:56:09.167Z,53.53
2023-01-25T04:58:38.255Z,56.42
2023-01-25T05:01:06.275Z,55.17
2023-01-25T05:03:34.392Z,55.20
2023-01-25T05:06:02.058Z,56.95
2023-01-25T05:08:29.796Z,51.60
2023-01-25T05:10:57.513Z,55.78
2023-01-25T05:13:25.355Z,55.28
2023-01-25T05:15:54.497Z,57.85
2023-01-25T05:18:22.177Z,56.40
2023-01-25T05:20:55.363Z,56.25
2023-01-25T05:23:23.351Z,56.15
2023-01-25T05:26:08.679Z,52.03
2023-01-25T05:28:36.395Z,54.10
2023-01-25T05:31:06.607Z,54.63
2023-01-25T05:33:34.388Z,51.35
2023-01-25T05:36:02.060Z,52.80
2023-01-25T05:38:30.606Z,53.25
2023-01-25T05:40:59.379Z,52.33
2023-01-25T05:43:27.166Z,56.28
2023-01-25T05:45:55.035Z,53.97
2023-01-25T05:48:24.114Z,55.60
2023-01-25T05:50:51.779Z,58.42
2023-01-25T05:53:19.472Z,55.25
2023-01-25T05:55:47.169Z,59.95
2023-01-25T05:58:14.900Z,56.10
2023-01-25T06:00:42.573Z,58.63
2023-01-25T06:03:10.400Z,58.35
2023-01-25T06:05:39.609Z,55.30
2023-01-25T06:08:07.467Z,58.67
2023-01-25T06:10:35.149Z,59.28
2023-01-25T06:13:03.397Z,59.13
2023-01-25T06:15:31.269Z,60.30
2023-01-25T06:17:58.982Z,57.30
2023-01-25T06:20:26.684Z,57.08
2023-01-25T06:22:55.735Z,57.15
2023-01-25T06:25:23.425Z,58.17
2023-01-25T06:27:51.220Z,60.70
2023-01-25T06:30:19.318Z,56.25
2023-01-25T06:32:47.011Z,60.15
2023-01-25T06:35:14.790Z,56.50
2023-01-25T06:37:42.493Z,53.50
2023-01-25T06:40:12.875Z,54.70
2023-01-25T06:42:40.591Z,57.75
2023-01-25T06:45:09.884Z,58.50
2023-01-25T06:47:37.784Z,56.42
2023-01-25T06:50:06.044Z,57.67
2023-01-25T06:52:36.389Z,65.60
2023-01-25T06:55:04.179Z,58.13
2023-01-25T06:57:33.272Z,58.78
2023-01-25T07:00:01.688Z,62.10
2023-01-25T07:02:29.528Z,62.67
2023-01-25T07:04:57.269Z,72.10
2023-01-25T07:07:24.988Z,68.43
2023-01-25T07:09:52.838Z,58.80
2023-01-25T07:12:20.517Z,64.43
2023-01-25T07:14:49.664Z,66.30
2023-01-25T07:17:17.356Z,66.10
2023-01-25T07:19:45.059Z,68.88
2023-01-25T07:22:12.806Z,63.25
2023-01-25T07:24:40.784Z,63.80
2023-01-25T07:27:08.491Z,62.90
2023-01-25T07:29:36.218Z,64.53
2023-01-25T07:32:06.677Z,67.57
2023-01-25T07:34:34.366Z,67.60
2023-01-25T07:37:02.092Z,65.00
2023-01-25T07:39:29.934Z,66.68
2023-01-25T07:41:57.639Z,65.05
2023-01-25T07:44:25.345Z,65.03
2023-01-25T07:46:55.082Z,65.70
2023-01-25T07:49:24.123Z,66.07
2023-01-25T07:51:51.810Z,62.38
2023-01-25T07:54:19.543Z,69.22
2023-01-25T07:56:47.233Z,65.00
2023-01-25T07:59:15.530Z,61.33
2023-01-25T08:01:43.241Z,66.07
2023-01-25T08:04:10.937Z,65.88
2023-01-25T08:06:40.227Z,63.38
2023-01-25T08:09:09.940Z,59.78
2023-01-25T08:11:37.639Z,68.57
2023-01-25T08:14:05.366Z,65.47
2023-01-25T08:16:33.380Z,65.18
2023-01-25T08:19:03.150Z,66.22
2023-01-25T08:21:33.525Z,64.75
2023-01-25T08:24:05.012Z,62.35
2023-01-25T08:26:33.579Z,63.13
2023-01-25T08:29:01.585Z,64.47
2023-01-25T08:31:32.170Z,61.45
2023-01-25T08:34:01.061Z,67.15
2023-01-25T08:36:29.256Z,65.22
2023-01-25T08:38:58.443Z,63.97
2023-01-25T08:41:28.701Z,66.68
2023-01-25T08:43:57.387Z,63.80
2023-01-25T08:46:30.145Z,65.47
2023-01-25T08:48:59.664Z,68.65
2023-01-25T08:51:28.092Z,67.38
2023-01-25T08:53:55.864Z,69.47
2023-01-25T08:56:23.801Z,65.85
2023-01-25T08:58:52.920Z,67.07
2023-01-25T09:01:21.747Z,67.18
2023-01-25T09:03:51.590Z,63.70
2023-01-25T09:06:20.829Z,68.07
2023-01-25T09:08:49.344Z,65.78
2023-01-25T09:11:18.800Z,62.38
2023-01-25T09:13:48.505Z,64.82
2023-01-25T09:16:20.650Z,66.30
2023-01-25T09:18:50.500Z,65.97
2023-01-25T09:21:19.681Z,63.78
2023-01-25T09:23:57.423Z,66.32
2023-01-25T09:26:32.414Z,65.90
2023-01-25T09:29:00.340Z,67.10
2023-01-25T09:31:30.464Z,67.68
2023-01-25T09:33:58.627Z,66.32
2023-01-25T09:36:26.457Z,64.43
2023-01-25T09:38:54.281Z,68.88
2023-01-25T09:41:45.552Z,70.00
2023-01-25T09:44:30.197Z,69.53
2023-01-25T09:47:02.507Z,68.88
2023-01-25T09:49:50.611Z,72.45
2023-01-25T09:52:40.115Z,69.68
2023-01-25T09:55:15.791Z,70.38
2023-01-25T09:57:46.498Z,66.30
2023-01-25T10:00:20.633Z,65.88
2023-01-25T10:02:58.085Z,67.15
2023-01-25T10:05:31.595Z,67.55
2023-01-25T10:08:04.990Z,65.53
2023-01-25T10:10:37.380Z,66.63
2023-01-25T10:13:05.397Z,69.90
2023-01-25T10:15:40.860Z,67.28
2023-01-25T10:18:20.860Z,70.55
2023-01-25T10:20:53.156Z,71.03
2023-01-25T10:23:41.411Z,70.82
2023-01-25T10:26:15.797Z,67.20
2023-01-25T10:28:50.843Z,68.60
2023-01-25T10:31:20.551Z,70.97
2023-01-25T10:33:50.255Z,64.40
2023-01-25T10:36:22.348Z,65.90
2023-01-25T10:38:50.581Z,70.47
2023-01-25T10:41:24.214Z,68.32
2023-01-25T10:44:12.010Z,71.50
2023-01-25T10:46:41.935Z,73.90
2023-01-25T10:49:23.823Z,69.90
2023-01-25T10:51:51.688Z,71.78
2023-01-25T10:54:19.421Z,76.45
2023-01-25T10:56:47.428Z,72.95
2023-01-25T10:59:24.090Z,70.65
2023-01-25T11:01:52.934Z,76.05
2023-01-25T11:04:33.447Z,73.55
2023-01-25T11:07:02.653Z,68.40
2023-01-25T11:09:39.275Z,74.35
2023-01-25T11:12:18.885Z,74.15
2023-01-25T11:14:49.750Z,74.15
2023-01-25T11:17:27.016Z,67.47
2023-01-25T11:20:18.357Z,73.07
2023-01-25T11:22:53.846Z,72.68
2023-01-25T11:25:30.007Z,69.80
2023-01-25T11:28:12.900Z,70.65
2023-01-25T11:30:40.733Z,70.95
2023-01-25T11:33:12.733Z,70.20
2023-01-25T11:36:00.093Z,70.72
2023-01-25T11:38:28.181Z,68.90
2023-01-25T11:41:02.964Z,71.38
2023-01-25T11:43:53.906Z,70.82
2023-01-25T11:46:31.721Z,67.55
2023-01-25T11:49:11.004Z,71.95
2023-01-25T11:51:47.209Z,66.75
2023-01-25T11:54:37.030Z,68.05
2023-01-25T11:57:18.559Z,65.78
2023-01-25T12:00:02.180Z,67.35
2023-01-25T12:03:01.279Z,61.47
2023-01-25T12:05:44.653Z,68.80
2023-01-25T12:08:39.147Z,66.18
2023-01-25T12:11:14.210Z,67.07
2023-01-25T12:13:52.285Z,67.28
2023-01-25T12:16:33.299Z,63.80
2023-01-25T12:19:30.069Z,63.78
2023-01-25T12:22:13.243Z,64.72
2023-01-25T12:24:53.032Z,61.33
2023-01-25T12:27:33.153Z,62.75
2023-01-25T12:30:05.393Z,59.80
2023-01-25T12:32:38.350Z,65.18
2023-01-25T12:35:24.963Z,59.85
2023-01-25T12:37:59.633Z,65.53
2023-01-25T12:40:41.867Z,62.45
2023-01-25T12:43:15.745Z,60.72
2023-01-25T12:45:46.712Z,64.38
2023-01-25T12:48:21.057Z,65.15
2023-01-25T12:50:54.701Z,61.20
2023-01-25T12:53:26.083Z,65.03
2023-01-25T12:55:56.686Z,61.83
2023-01-25T12:58:37.866Z,64.20
2023-01-25T13:01:13.799Z,62.17
2023-01-25T13:03:58.021Z,62.20
2023-01-25T13:06:34.887Z,60.47
2023-01-25T13:09:08.959Z,59.60
2023-01-25T13:11:40.859Z,62.05
2023-01-25T13:14:30.150Z,64.00
2023-01-25T13:17:12.835Z,60.28
2023-01-25T13:19:45.347Z,62.08
2023-01-25T13:22:16.311Z,61.22
2023-01-25T13:25:11.722Z,64.32
2023-01-25T13:27:40.968Z,64.72
2023-01-25T13:30:32.069Z,59.10
2023-01-25T13:33:03.349Z,61.65
2023-01-25T13:35:36.822Z,63.08
2023-01-25T13:38:24.518Z,54.90
2023-01-25T13:41:14.401Z,61.67
2023-01-25T13:44:08.859Z,63.40
2023-01-25T13:46:37.042Z,58.55
2023-01-25T13:49:08.134Z,65.43
2023-01-25T13:51:40.382Z,62.00
2023-01-25T13:54:16.932Z,60.67
2023-01-25T13:56:44.923Z,61.90
2023-01-25T13:59:27.299Z,64.32
2023-01-25T14:01:57.155Z,57.92
2023-01-25T14:04:25.422Z,65.43
2023-01-25T14:06:58.268Z,65.43
2023-01-25T14:09:26.191Z,66.35
2023-01-25T14:11:56.498Z,61.45
2023-01-25T14:14:29.147Z,60.47
2023-01-25T14:19:33.517Z,60.25
2023-01-25T14:22:15.626Z,62.17
2023-01-25T14:24:43.368Z,61.92
2023-01-25T14:27:15.507Z,59.33
2023-01-25T14:29:49.639Z,62.35
2023-01-25T14:32:21.661Z,62.85
2023-01-25T14:34:49.434Z,67.88
2023-01-25T14:37:20.608Z,62.90
2023-01-25T14:39:49.905Z,65.00
2023-01-25T14:42:18.430Z,67.10
2023-01-25T14:44:48.180Z,68.78
2023-01-25T14:47:29.587Z,71.07
2023-01-25T14:50:17.404Z,69.82
2023-01-25T14:52:45.177Z,72.93
2023-01-25T14:55:15.429Z,66.57
2023-01-25T14:57:43.716Z,68.57
2023-01-25T15:00:23.910Z,66.03
2023-01-25T15:02:55.382Z,68.95
2023-01-25T15:05:27.362Z,70.95
2023-01-25T15:07:56.765Z,67.53
2023-01-25T15:10:27.043Z,70.80
2023-01-25T15:13:13.244Z,72.15
2023-01-25T15:15:54.489Z,78.20
2023-01-25T15:18:44.722Z,74.00
2023-01-25T15:21:14.097Z,73.38
2023-01-25T15:23:43.136Z,76.43
2023-01-25T15:26:16.250Z,74.57
2023-01-25T15:28:44.004Z,74.40
2023-01-25T15:31:18.092Z,79.28
2023-01-25T15:33:45.948Z,73.47
2023-01-25T15:36:16.006Z,78.07
2023-01-25T15:38:43.857Z,80.65
2023-01-25T15:41:12.310Z,79.90
2023-01-25T15:43:40.281Z,79.10
2023-01-25T15:46:16.333Z,84.32
2023-01-25T15:48:46.202Z,78.77
2023-01-25T15:51:14.637Z,78.38
2023-01-25T15:53:42.908Z,74.97
2023-01-25T15:56:15.638Z,77.10
2023-01-25T15:58:45.480Z,79.53
2023-01-25T16:01:14.814Z,74.53
2023-01-25T16:03:42.734Z,80.47
2023-01-25T16:06:24.642Z,75.18
2023-01-25T16:08:52.553Z,76.50
2023-01-25T16:11:20.272Z,83.60
2023-01-25T16:13:48.067Z,80.07
2023-01-25T16:16:20.569Z,77.90
2023-01-25T16:18:48.891Z,77.00
2023-01-25T16:21:17.165Z,79.50
2023-01-25T16:23:44.900Z,83.35
2023-01-25T16:26:19.584Z,77.90
2023-01-25T16:28:47.593Z,82.13
2023-01-25T16:31:31.456Z,81.50
2023-01-25T16:34:00.637Z,80.85
2023-01-25T16:36:28.869Z,81.45
2023-01-25T16:38:56.831Z,77.32
2023-01-25T16:41:24.607Z,81.70
2023-01-25T16:43:53.539Z,79.45
2023-01-25T16:46:24.550Z,78.82
2023-01-25T16:48:53.198Z,78.18
2023-01-25T16:51:22.874Z,87.15
2023-01-25T16:53:52.244Z,80.55
2023-01-25T16:56:21.238Z,83.55
2023-01-25T16:58:50.428Z,86.53
2023-01-25T17:01:20.533Z,80.28
2023-01-25T17:03:50.219Z,81.20
2023-01-25T17:06:20.254Z,81.00
2023-01-25T17:08:48.261Z,81.53
2023-01-25T17:11:18.711Z,88.65
2023-01-25T17:13:49.763Z,86.72
2023-01-25T17:16:17.787Z,82.28
2023-01-25T17:18:45.817Z,82.57
2023-01-25T17:21:16.896Z,83.43
2023-01-25T17:23:45.068Z,86.00
2023-01-25T17:26:14.894Z,84.85
2023-01-25T17:28:43.246Z,85.57
2023-01-25T17:31:15.590Z,81.30
2023-01-25T17:33:43.434Z,86.25
2023-01-25T17:36:15.033Z,79.05
2023-01-25T17:38:44.900Z,84.68
2023-01-25T17:41:14.990Z,82.93
2023-01-25T17:43:42.928Z,81.88
2023-01-25T17:46:14.530Z,86.95
2023-01-25T17:48:42.651Z,83.30
2023-01-25T17:51:10.512Z,86.53
2023-01-25T17:53:38.249Z,84.15
2023-01-25T17:56:08.628Z,89.45
2023-01-25T17:58:37.848Z,83.20
2023-01-25T18:01:14.299Z,89.60
2023-01-25T18:03:42.736Z,81.57
2023-01-25T18:06:11.459Z,79.78
2023-01-25T18:08:40.615Z,87.03
2023-01-25T18:11:10.655Z,84.75
2023-01-25T18:13:41.417Z,83.95
2023-01-25T18:16:10.478Z,83.45
2023-01-25T18:18:38.980Z,83.10
2023-01-25T18:21:09.061Z,83.97
2023-01-25T18:23:37.156Z,86.80
2023-01-25T18:26:06.636Z,88.20
2023-01-25T18:28:36.189Z,82.65
2023-01-25T18:31:06.743Z,83.78
2023-01-25T18:33:34.527Z,83.15
2023-01-25T18:36:03.939Z,81.88
2023-01-25T18:38:32.869Z,87.15
2023-01-25T18:41:00.816Z,82.05
2023-01-25T18:43:28.729Z,84.20
2023-01-25T18:45:59.505Z,83.82
2023-01-25T18:48:31.288Z,85.57
2023-01-25T18:50:59.845Z,81.82
2023-01-25T18:53:27.633Z,81.20
2023-01-25T18:56:03.004Z,81.15
2023-01-25T18:58:32.086Z,82.50
2023-01-25T19:01:06.557Z,89.22
2023-01-25T19:03:34.542Z,81.53
2023-01-25T19:06:03.162Z,88.70
2023-01-25T19:08:32.395Z,82.57
2023-01-25T19:11:01.552Z,86.00
2023-01-25T19:13:32.133Z,88.45
2023-01-25T19:16:06.316Z,87.75
2023-01-25T19:18:35.623Z,88.57
2023-01-25T19:21:07.350Z,86.85
2023-01-25T19:23:36.738Z,88.88
2023-01-25T19:26:05.647Z,91.75
2023-01-25T19:28:34.669Z,90.18
2023-01-25T19:31:08.548Z,88.53
2023-01-25T19:33:36.543Z,85.18
2023-01-25T19:36:06.646Z,88.43
2023-01-25T19:38:38.380Z,84.15
2023-01-25T19:41:07.130Z,85.53
2023-01-25T19:43:34.980Z,87.93
2023-01-25T19:46:12.660Z,85.38
2023-01-25T19:48:41.609Z,87.25
2023-01-25T19:51:11.141Z,88.13
2023-01-25T19:53:39.062Z,86.65
2023-01-25T19:56:09.160Z,86.78
2023-01-25T19:58:36.963Z,86.72
2023-01-25T20:01:08.796Z,81.30
2023-01-25T20:03:38.613Z,82.13
2023-01-25T20:06:07.182Z,89.07
2023-01-25T20:08:36.497Z,84.95
2023-01-25T20:11:07.229Z,90.28
2023-01-25T20:13:35.176Z,89.07
2023-01-25T20:16:02.989Z,80.18
2023-01-25T20:18:34.264Z,78.85
2023-01-25T20:21:05.599Z,84.97
2023-01-25T20:23:34.507Z,85.97
2023-01-25T20:26:03.645Z,89.35
2023-01-25T20:28:34.363Z,77.05
2023-01-25T20:31:03.955Z,89.20
2023-01-25T20:33:32.157Z,83.72
2023-01-25T20:36:01.486Z,81.40
2023-01-25T20:38:34.531Z,83.80
2023-01-25T20:41:03.312Z,80.05
2023-01-25T20:43:31.555Z,88.07
2023-01-25T20:45:59.864Z,84.55
2023-01-25T20:48:28.300Z,79.72
2023-01-25T20:51:02.550Z,80.07
2023-01-25T20:53:30.854Z,78.95
2023-01-25T20:56:00.023Z,81.05
2023-01-25T20:58:28.213Z,83.30
2023-01-25T21:00:56.523Z,80.97
2023-01-25T21:03:25.018Z,76.90
2023-01-25T21:05:53.333Z,75.47
2023-01-25T21:08:21.650Z,74.72
2023-01-25T21:10:50.975Z,74.72
2023-01-25T21:13:20.400Z,74.50
2023-01-25T21:15:58.944Z,76.80
2023-01-25T21:18:28.755Z,73.95
2023-01-25T21:21:01.366Z,82.20
2023-01-25T21:23:29.753Z,76.38
2023-01-25T21:25:57.878Z,75.70
2023-01-25T21:28:27.209Z,73.50
2023-01-25T21:30:54.937Z,70.18
2023-01-25T21:33:22.909Z,72.63
2023-01-25T21:35:54.368Z,72.25
2023-01-25T21:38:22.367Z,74.75
2023-01-25T21:40:50.098Z,71.70
2023-01-25T21:43:18.089Z,71.00
2023-01-25T21:46:04.520Z,71.50
2023-01-25T21:48:49.944Z,71.63
2023-01-25T21:51:43.801Z,72.82
2023-01-25T21:54:11.649Z,66.80
2023-01-25T21:56:39.394Z,77.35
2023-01-25T21:59:07.144Z,69.97
2023-01-25T22:01:36.493Z,76.53
2023-01-25T22:04:04.229Z,73.53
2023-01-25T22:06:31.990Z,74.35
2023-01-25T22:08:59.866Z,70.45
2023-01-25T22:11:27.890Z,74.97
2023-01-25T22:13:55.769Z,75.63
2023-01-25T22:16:23.676Z,65.97
2023-01-25T22:18:52.818Z,70.25
2023-01-25T22:21:22.756Z,76.38
2023-01-25T22:23:51.257Z,72.68
2023-01-25T22:26:20.506Z,70.22
2023-01-25T22:28:49.942Z,73.25
2023-01-25T22:31:19.381Z,73.72
2023-01-25T22:33:47.588Z,74.15
2023-01-25T22:36:18.295Z,73.68
2023-01-25T22:38:45.997Z,76.95
2023-01-25T22:41:15.582Z,74.82
2023-01-25T22:43:43.534Z,73.32
2023-01-25T22:46:15.068Z,74.57
2023-01-25T22:48:43.010Z,77.97
2023-01-25T22:51:13.462Z,74.15
2023-01-25T22:53:42.887Z,72.95
2023-01-25T22:56:13.177Z,74.88
2023-01-25T22:58:42.826Z,83.32
2023-01-25T23:01:12.093Z,79.93
2023-01-25T23:03:40.258Z,75.32
2023-01-25T23:06:09.763Z,84.10
2023-01-25T23:08:38.180Z,77.03
2023-01-25T23:11:09.100Z,80.35
2023-01-25T23:13:37.567Z,76.60
2023-01-25T23:16:06.883Z,80.65
2023-01-25T23:18:52.160Z,77.03
2023-01-25T23:21:21.654Z,75.57
2023-01-25T23:23:49.998Z,76.82
2023-01-25T23:26:19.250Z,74.78
2023-01-25T23:28:51.116Z,71.82
2023-01-25T23:31:19.737Z,69.22
2023-01-25T23:33:49.385Z,69.80
2023-01-25T23:36:19.084Z,71.90
2023-01-25T23:38:48.163Z,71.88
2023-01-25T23:41:16.995Z,68.50
2023-01-25T23:43:46.925Z,72.75
2023-01-25T23:46:15.288Z,74.25
2023-01-25T23:48:43.568Z,72.85
2023-01-25T23:51:12.409Z,74.90
2023-01-25T23:53:41.019Z,69.25
2023-01-25T23:56:11.756Z,72.82
2023-01-25T23:58:39.959Z,72.75
